Time;durP1;ratioP1;P1;durP2;ratioP2;P2;SDS_P1;SDS_P2;PMS_P1;PMS_P2;Temp;Humidity;BMP_temperature;BMP_pressure;BME280_temperature;BME280_humidity;BME280_pressure;Samples;Min_cycle;Max_cycle;Signal;HPM_P1;HPM_P2
2021/04/17 00:08:00;;;;;;;7.05;3.75;;;6.40;99.90;;;;;;6744942;88;20270;-78
2021/04/17 00:18:00;;;;;;;5.78;3.40;;;6.30;99.90;;;;;;6742323;88;20195;-80
2021/04/17 00:28:01;;;;;;;8.25;3.90;;;6.30;99.90;;;;;;6746587;88;20718;-79
2021/04/17 00:38:01;;;;;;;6.47;3.70;;;6.20;99.90;;;;;;6747253;88;20198;-79
2021/04/17 00:48:02;;;;;;;8.07;3.92;;;6.10;99.90;;;;;;6744962;88;20188;-79
2021/04/17 00:58:05;;;;;;;7.80;4.10;;;6.10;99.90;;;;;;6744199;88;20698;-79
2021/04/17 01:08:14;;;;;;;6.60;4.18;;;5.90;99.90;;;;;;6744165;88;20330;-78
2021/04/17 01:18:15;;;;;;;7.78;4.20;;;5.80;99.90;;;;;;6754784;88;20213;-79
2021/04/17 01:28:17;;;;;;;9.82;4.68;;;5.70;99.90;;;;;;6746845;88;20172;-79
2021/04/17 01:38:27;;;;;;;8.20;4.50;;;5.60;99.90;;;;;;6757303;88;20219;-79
2021/04/17 01:48:29;;;;;;;9.80;4.37;;;5.40;99.90;;;;;;6744169;88;20184;-78
2021/04/17 01:58:35;;;;;;;8.30;4.72;;;5.20;99.90;;;;;;6743789;88;20209;-78
2021/04/17 02:08:36;;;;;;;8.45;4.82;;;5.20;99.90;;;;;;6752479;88;20202;-79
2021/04/17 02:18:58;;;;;;;9.98;4.55;;;5.00;99.90;;;;;;6769612;88;20726;-79
2021/04/17 02:28:58;;;;;;;9.80;4.60;;;4.90;99.90;;;;;;6760892;88;22601;-79
2021/04/17 02:38:59;;;;;;;7.62;4.47;;;4.80;99.90;;;;;;6773558;88;20217;-79
2021/04/17 02:48:59;;;;;;;9.40;4.70;;;4.70;99.90;;;;;;6776920;88;20292;-78
2021/04/17 02:59:00;;;;;;;8.50;4.60;;;4.60;99.90;;;;;;6760410;88;20199;-79
2021/04/17 03:09:00;;;;;;;12.33;5.30;;;4.50;99.90;;;;;;6757506;88;20640;-78
2021/04/17 03:19:01;;;;;;;9.90;4.97;;;4.40;99.90;;;;;;6759436;88;20545;-78
2021/04/17 03:29:02;;;;;;;9.60;4.90;;;4.30;99.90;;;;;;6763702;88;20191;-78
2021/04/17 03:39:04;;;;;;;10.15;5.07;;;4.30;99.90;;;;;;6761369;88;20209;-79
2021/04/17 03:49:05;;;;;;;9.00;4.75;;;4.10;99.90;;;;;;6764781;88;20268;-79
2021/04/17 03:59:05;;;;;;;8.07;4.53;;;3.80;99.90;;;;;;6764708;88;20229;-79
2021/04/17 04:09:06;;;;;;;10.80;4.90;;;3.80;99.90;;;;;;6755788;88;20541;-78
2021/04/17 04:19:06;;;;;;;8.25;4.45;;;3.70;99.90;;;;;;6751392;88;20214;-77
2021/04/17 04:29:07;;;;;;;10.18;4.85;;;3.60;99.90;;;;;;6746825;88;20215;-77
2021/04/17 04:39:08;;;;;;;8.30;4.43;;;3.60;99.90;;;;;;6753701;88;20188;-77
2021/04/17 04:49:08;;;;;;;9.80;4.60;;;3.70;99.90;;;;;;6749769;88;20218;-76
2021/04/17 04:59:09;;;;;;;7.03;4.40;;;3.60;99.90;;;;;;6752324;88;20215;-78
2021/04/17 05:09:10;;;;;;;7.85;4.62;;;3.70;99.90;;;;;;6746006;88;20214;-77
2021/04/17 05:19:11;;;;;;;8.52;4.70;;;3.80;99.90;;;;;;6755083;88;20187;-77
2021/04/17 05:29:11;;;;;;;11.32;4.85;;;3.90;99.90;;;;;;6756224;88;20196;-77
2021/04/17 05:39:12;;;;;;;10.98;5.40;;;4.10;99.90;;;;;;6766577;88;20206;-78
2021/04/17 05:49:13;;;;;;;10.15;4.95;;;4.50;99.90;;;;;;6761499;88;20319;-77
2021/04/17 05:59:14;;;;;;;8.43;5.15;;;4.90;99.90;;;;;;6760089;88;20211;-77
2021/04/17 06:09:15;;;;;;;9.65;4.93;;;4.90;99.90;;;;;;6760836;88;20852;-79
2021/04/17 06:19:15;;;;;;;12.93;5.47;;;5.10;99.90;;;;;;6707191;88;20275;-79
2021/04/17 06:29:16;;;;;;;11.00;5.53;;;5.50;99.90;;;;;;6708474;88;20233;-79
2021/04/17 06:39:16;;;;;;;9.07;5.37;;;5.60;99.90;;;;;;6721613;88;20195;-79
2021/04/17 06:49:18;;;;;;;10.05;5.62;;;5.60;99.90;;;;;;6758038;88;20507;-78
2021/04/17 06:59:19;;;;;;;10.23;5.05;;;5.80;99.90;;;;;;6755562;88;20183;-78
2021/04/17 07:09:23;;;;;;;9.90;4.80;;;6.30;99.90;;;;;;6768162;87;20186;-78
2021/04/17 07:19:24;;;;;;;8.30;4.43;;;6.80;99.90;;;;;;6772140;87;20183;-78
2021/04/17 07:29:25;;;;;;;7.28;4.07;;;8.00;99.90;;;;;;6768277;87;20311;-78
2021/04/17 07:39:32;;;;;;;6.30;3.10;;;8.60;99.90;;;;;;6744288;88;20217;-78
2021/04/17 07:49:32;;;;;;;7.12;2.70;;;9.60;99.90;;;;;;6748445;88;20230;-78
2021/04/17 07:59:33;;;;;;;5.40;2.72;;;9.80;98.30;;;;;;6758696;88;20212;-79
2021/04/17 08:09:36;;;;;;;5.68;2.72;;;10.50;96.10;;;;;;6759781;88;20212;-78
2021/04/17 08:19:38;;;;;;;7.07;3.03;;;11.70;93.90;;;;;;6764451;88;20198;-79
2021/04/17 08:29:50;;;;;;;7.93;2.95;;;12.60;90.40;;;;;;6746193;88;20229;-78
2021/04/17 08:39:54;;;;;;;7.35;2.53;;;13.40;86.50;;;;;;6742644;88;20188;-78
2021/04/17 08:50:20;;;;;;;5.43;2.22;;;12.90;84.60;;;;;;6737301;88;20200;-79
2021/04/17 09:00:21;;;;;;;2.90;1.60;;;13.50;84.00;;;;;;6741197;88;20319;-78
2021/04/17 09:10:35;;;;;;;5.75;1.90;;;13.20;77.20;;;;;;6741383;88;20738;-78
2021/04/17 09:20:38;;;;;;;6.20;2.10;;;13.10;78.30;;;;;;6743255;88;20229;-78
2021/04/17 09:30:39;;;;;;;5.12;2.00;;;12.30;78.80;;;;;;6739320;88;20266;-78
2021/04/17 09:40:41;;;;;;;5.87;2.00;;;13.50;75.30;;;;;;6743346;88;20234;-78
2021/04/17 09:50:41;;;;;;;4.95;2.30;;;14.20;73.10;;;;;;6747972;88;20204;-78
2021/04/17 10:00:42;;;;;;;6.97;2.03;;;14.90;70.90;;;;;;6749913;88;20681;-78
2021/04/17 10:10:45;;;;;;;5.28;2.10;;;15.90;68.50;;;;;;6759644;88;20214;-78
2021/04/17 10:20:46;;;;;;;5.12;2.28;;;15.50;66.80;;;;;;6754542;88;20228;-78
2021/04/17 10:31:16;;;;;;;3.87;2.00;;;16.70;65.00;;;;;;6756864;87;20225;-79
2021/04/17 10:41:30;;;;;;;4.50;2.08;;;16.00;65.30;;;;;;6752999;88;20228;-79
2021/04/17 10:51:39;;;;;;;5.80;2.30;;;16.30;64.40;;;;;;6760243;87;20209;-78
2021/04/17 11:01:39;;;;;;;5.03;2.30;;;16.40;63.00;;;;;;6757881;88;20267;-79
2021/04/17 11:12:01;;;;;;;5.60;2.40;;;17.50;61.60;;;;;;6761012;87;20348;-79
2021/04/17 11:22:15;;;;;;;4.32;2.33;;;18.00;60.50;;;;;;6753234;88;20609;-77
2021/04/17 11:32:15;;;;;;;3.70;2.15;;;17.10;59.30;;;;;;6751919;88;20201;-78
2021/04/17 11:42:17;;;;;;;4.07;2.40;;;17.70;58.60;;;;;;6761143;88;20686;-79
2021/04/17 11:52:17;;;;;;;3.95;2.20;;;18.30;58.10;;;;;;6743986;88;20522;-78
2021/04/17 12:02:18;;;;;;;5.60;2.30;;;17.70;56.10;;;;;;6749279;88;20332;-78
2021/04/17 12:12:19;;;;;;;7.10;2.53;;;17.70;57.80;;;;;;6741641;88;20219;-81
2021/04/17 12:22:19;;;;;;;4.37;2.20;;;19.40;54.90;;;;;;6744604;88;20276;-79
2021/04/17 12:32:20;;;;;;;4.60;2.35;;;18.60;56.00;;;;;;6747162;88;20679;-79
2021/04/17 12:42:20;;;;;;;4.85;1.98;;;18.10;56.50;;;;;;6746479;88;20218;-78
2021/04/17 12:52:21;;;;;;;3.62;2.00;;;15.60;57.10;;;;;;6740736;88;20187;-77
2021/04/17 13:02:21;;;;;;;5.70;2.10;;;14.00;58.90;;;;;;6742638;88;20339;-77
2021/04/17 13:12:22;;;;;;;5.95;2.20;;;14.20;59.90;;;;;;6740683;88;20245;-77
2021/04/17 13:22:23;;;;;;;6.45;1.95;;;14.10;58.70;;;;;;6740089;88;20668;-80
2021/04/17 13:32:23;;;;;;;4.57;2.00;;;14.80;59.40;;;;;;6741047;88;20375;-77
2021/04/17 13:42:24;;;;;;;4.30;2.10;;;14.40;60.90;;;;;;6749395;88;20214;-77
2021/04/17 13:52:25;;;;;;;4.45;2.30;;;14.30;61.70;;;;;;6749768;88;20216;-77
2021/04/17 14:02:26;;;;;;;6.80;2.40;;;14.10;63.20;;;;;;6747304;88;20236;-77
2021/04/17 14:12:27;;;;;;;5.35;2.30;;;13.40;65.10;;;;;;6755809;88;20230;-78
2021/04/17 14:22:27;;;;;;;8.50;2.42;;;14.00;65.40;;;;;;6753374;88;20208;-77
2021/04/17 14:32:28;;;;;;;5.55;2.08;;;13.80;65.20;;;;;;6755994;88;20242;-77
2021/04/17 14:42:29;;;;;;;5.70;2.60;;;13.30;65.80;;;;;;6751797;87;20210;-77
2021/04/17 14:52:30;;;;;;;4.93;2.53;;;13.50;65.10;;;;;;6750497;87;20184;-77
2021/04/17 15:02:31;;;;;;;4.25;2.42;;;13.30;65.30;;;;;;6750835;88;20200;-77
2021/04/17 15:12:32;;;;;;;6.20;2.90;;;13.10;66.10;;;;;;6747647;87;20197;-77
2021/04/17 15:22:37;;;;;;;5.72;2.83;;;13.30;66.60;;;;;;6754283;88;20200;-78
2021/04/17 15:32:42;;;;;;;6.60;2.90;;;13.30;67.80;;;;;;6760064;87;20173;-77
2021/04/17 15:42:43;;;;;;;5.35;2.42;;;13.10;68.20;;;;;;6756280;88;20205;-78
2021/04/17 15:52:43;;;;;;;4.87;2.47;;;12.60;69.40;;;;;;6752881;88;20207;-77
2021/04/17 16:23:39;;;;;;;8.07;2.45;;;12.70;68.00;;;;;;6741495;88;20192;-76
2021/04/17 16:33:40;;;;;;;5.00;2.43;;;13.20;67.00;;;;;;6751958;88;20743;-76
2021/04/17 16:43:40;;;;;;;6.12;2.22;;;13.20;66.00;;;;;;6741422;88;20497;-76
2021/04/17 16:53:41;;;;;;;7.10;2.30;;;13.10;65.80;;;;;;6743434;88;20319;-75
2021/04/17 17:03:42;;;;;;;5.60;2.30;;;12.90;65.80;;;;;;6741365;87;20230;-74
2021/04/17 17:13:42;;;;;;;5.18;2.15;;;12.60;66.20;;;;;;6748517;87;22120;-76
2021/04/17 17:23:43;;;;;;;5.70;2.20;;;12.40;66.70;;;;;;6754071;87;20270;-77
2021/04/17 17:33:43;;;;;;;6.22;2.30;;;12.20;68.10;;;;;;6752136;87;20692;-76
2021/04/17 17:43:44;;;;;;;5.12;2.30;;;12.10;68.40;;;;;;6736521;88;20247;-77
2021/04/17 17:53:45;;;;;;;6.15;2.58;;;11.90;68.50;;;;;;6737817;88;20248;-78
2021/04/17 18:03:45;;;;;;;8.18;3.25;;;11.90;68.70;;;;;;6747737;88;20212;-76
2021/04/17 18:13:46;;;;;;;6.25;2.47;;;11.80;69.00;;;;;;6722860;88;20426;-78
2021/04/17 18:23:46;;;;;;;7.03;2.67;;;11.60;70.00;;;;;;6676398;88;20199;-76
2021/04/17 18:33:47;;;;;;;5.35;2.30;;;11.50;70.00;;;;;;6664608;88;20698;-77
2021/04/17 18:43:47;;;;;;;5.70;2.62;;;11.40;70.70;;;;;;6663878;89;20320;-77
2021/04/17 18:53:48;;;;;;;7.43;3.40;;;11.40;71.20;;;;;;6658552;89;20716;-75
2021/04/17 19:03:48;;;;;;;8.17;4.27;;;11.30;71.10;;;;;;6648277;89;20660;-76
2021/04/17 19:13:49;;;;;;;11.27;4.82;;;11.10;71.50;;;;;;6671739;88;20326;-77
2021/04/17 19:23:50;;;;;;;7.80;3.67;;;11.10;71.40;;;;;;6735436;88;20628;-77
2021/04/17 19:33:51;;;;;;;9.27;3.45;;;11.10;72.30;;;;;;6735247;88;20208;-77
2021/04/17 19:43:51;;;;;;;6.50;3.12;;;10.90;73.10;;;;;;6734430;88;20677;-77
2021/04/17 19:53:54;;;;;;;7.07;3.15;;;10.80;72.90;;;;;;6731623;88;20215;-77
2021/04/17 20:03:55;;;;;;;6.37;3.00;;;10.80;74.20;;;;;;6736281;88;20184;-77
2021/04/17 20:13:55;;;;;;;7.18;3.65;;;10.80;74.20;;;;;;6736296;88;20632;-76
2021/04/17 20:23:56;;;;;;;8.63;4.30;;;10.60;75.80;;;;;;6736018;88;20611;-77
2021/04/17 20:33:59;;;;;;;7.18;3.62;;;10.40;78.20;;;;;;6737053;88;20216;-77
2021/04/17 20:44:00;;;;;;;7.45;3.53;;;10.20;78.60;;;;;;6736277;88;20192;-77
2021/04/17 20:54:01;;;;;;;9.13;3.40;;;10.10;79.00;;;;;;6735562;88;20212;-77
2021/04/17 21:04:02;;;;;;;7.50;3.08;;;10.10;80.00;;;;;;6735691;88;20196;-77
2021/04/17 21:14:03;;;;;;;8.27;4.03;;;10.10;80.60;;;;;;6735233;88;20229;-77
2021/04/17 21:24:05;;;;;;;7.68;3.80;;;10.10;80.80;;;;;;6734795;88;20642;-76
2021/04/17 21:34:06;;;;;;;11.45;4.60;;;10.20;81.00;;;;;;6735468;88;20191;-77
2021/04/17 21:44:07;;;;;;;10.82;4.65;;;10.00;81.40;;;;;;6735180;88;20222;-78
2021/04/17 21:54:08;;;;;;;6.93;3.50;;;10.00;81.40;;;;;;6736362;88;20644;-76
2021/04/17 22:04:08;;;;;;;7.50;4.00;;;10.00;81.90;;;;;;6735743;88;20232;-77
2021/04/17 22:14:09;;;;;;;10.67;4.10;;;10.00;83.50;;;;;;6741719;88;20664;-76
2021/04/17 22:24:10;;;;;;;8.75;4.28;;;10.10;84.10;;;;;;6762604;88;20550;-78
2021/04/17 22:34:10;;;;;;;9.02;4.05;;;9.80;85.30;;;;;;6764826;88;20690;-77
2021/04/17 22:44:12;;;;;;;6.73;4.03;;;9.80;86.70;;;;;;6749434;88;20652;-76
2021/04/17 22:54:12;;;;;;;8.38;4.45;;;9.70;88.60;;;;;;6735718;88;20543;-76
2021/04/17 23:04:18;;;;;;;8.15;4.40;;;9.60;90.90;;;;;;6734209;88;20322;-77
2021/04/17 23:14:19;;;;;;;8.00;4.07;;;9.40;92.40;;;;;;6711379;88;20195;-77
2021/04/17 23:24:19;;;;;;;8.85;4.30;;;9.30;94.10;;;;;;6666859;88;20506;-76
2021/04/17 23:34:20;;;;;;;9.80;3.78;;;9.30;95.40;;;;;;6666614;88;20200;-76
2021/04/17 23:44:20;;;;;;;10.70;4.90;;;9.10;96.90;;;;;;6667184;88;20188;-77
2021/04/17 23:54:21;;;;;;;8.65;4.70;;;8.80;98.40;;;;;;6666713;88;20686;-77
